Time;durP1;ratioP1;P1;durP2;ratioP2;P2;SDS_P1;SDS_P2;PMS_P1;PMS_P2;Temp;Humidity;BMP_temperature;BMP_pressure;BME280_temperature;BME280_humidity;BME280_pressure;Samples;Min_cycle;Max_cycle;Signal;HPM_P1;HPM_P2
2023/06/01 00:01:46;;;;;;;1.45;0.90;;;;;;;;;;5078175;28;20055;-79
2023/06/01 00:04:13;;;;;;;2.15;1.17;;;;;;;;;;5036183;28;20044;-79
2023/06/01 00:06:39;;;;;;;1.10;1.00;;;;;;;;;;5052971;28;20425;-79
2023/06/01 00:09:04;;;;;;;1.20;1.02;;;;;;;;;;5064822;28;20079;-79
2023/06/01 00:11:30;;;;;;;1.30;0.90;;;;;;;;;;5070936;28;20056;-79
2023/06/01 00:13:55;;;;;;;1.70;1.05;;;;;;;;;;5063800;28;20480;-79
2023/06/01 00:16:22;;;;;;;1.33;1.20;;;;;;;;;;5068764;28;20035;-79
2023/06/01 00:18:48;;;;;;;2.00;1.20;;;;;;;;;;5054632;28;20051;-79
2023/06/01 00:21:13;;;;;;;1.95;1.10;;;;;;;;;;5044006;28;20040;-79
2023/06/01 00:23:40;;;;;;;1.20;1.10;;;;;;;;;;5066614;28;20043;-79
2023/06/01 00:26:07;;;;;;;3.75;1.45;;;;;;;;;;5066484;28;20035;-79
2023/06/01 00:28:33;;;;;;;1.85;1.00;;;;;;;;;;5062460;28;20036;-78
2023/06/01 00:30:59;;;;;;;1.98;1.25;;;;;;;;;;5057191;28;20032;-79
2023/06/01 00:33:24;;;;;;;1.25;1.10;;;;;;;;;;5056960;28;20812;-77
2023/06/01 00:35:50;;;;;;;1.38;1.20;;;;;;;;;;5056291;28;20117;-79
2023/06/01 00:38:16;;;;;;;3.00;1.30;;;;;;;;;;5064032;28;20131;-78
2023/06/01 00:40:43;;;;;;;3.00;1.30;;;;;;;;;;5068593;28;20040;-78
2023/06/01 00:43:08;;;;;;;2.30;1.40;;;;;;;;;;5076640;28;20044;-79
2023/06/01 00:45:33;;;;;;;4.97;1.52;;;;;;;;;;5066590;28;20932;-79
2023/06/01 00:47:59;;;;;;;3.53;1.60;;;;;;;;;;5055728;28;20040;-79
2023/06/01 00:50:25;;;;;;;3.40;1.40;;;;;;;;;;5045874;28;20402;-80
2023/06/01 00:52:51;;;;;;;2.17;1.48;;;;;;;;;;5052943;28;20040;-79
2023/06/01 00:55:19;;;;;;;1.15;1.02;;;;;;;;;;5054209;28;20028;-80
2023/06/01 00:57:45;;;;;;;3.30;1.50;;;;;;;;;;5075162;28;20494;-79
2023/06/01 01:00:11;;;;;;;2.25;1.17;;;;;;;;;;5055600;28;20036;-79
2023/06/01 01:02:38;;;;;;;1.67;1.13;;;;;;;;;;5058016;28;20155;-79
2023/06/01 01:05:10;;;;;;;2.13;1.05;;;;;;;;;;5063056;28;20699;-79
2023/06/01 01:07:39;;;;;;;3.03;1.20;;;;;;;;;;5052776;28;20805;-79
2023/06/01 01:10:21;;;;;;;2.42;1.20;;;;;;;;;;5067842;28;20393;-79
2023/06/01 01:13:02;;;;;;;4.68;1.30;;;;;;;;;;5055483;28;20203;-79
2023/06/01 01:15:40;;;;;;;3.25;1.50;;;;;;;;;;5021829;28;20053;-79
2023/06/01 01:18:13;;;;;;;2.63;1.10;;;;;;;;;;5057264;28;20039;-79
2023/06/01 01:20:43;;;;;;;3.30;1.50;;;;;;;;;;5061722;28;20409;-79
2023/06/01 01:23:32;;;;;;;1.77;1.25;;;;;;;;;;5056464;28;20071;-80
2023/06/01 01:26:18;;;;;;;4.10;1.33;;;;;;;;;;5041059;28;20190;-79
2023/06/01 01:28:50;;;;;;;2.85;1.30;;;;;;;;;;5068735;28;20039;-80
2023/06/01 01:31:18;;;;;;;3.25;1.27;;;;;;;;;;5067718;28;20540;-78
2023/06/01 01:33:46;;;;;;;3.10;1.30;;;;;;;;;;5046578;28;20044;-79
2023/06/01 01:36:12;;;;;;;2.28;1.17;;;;;;;;;;5027748;28;20025;-78
2023/06/01 01:38:37;;;;;;;3.03;1.30;;;;;;;;;;5061850;28;20051;-80
2023/06/01 01:41:03;;;;;;;1.40;1.02;;;;;;;;;;5063606;28;20537;-79
2023/06/01 01:43:30;;;;;;;2.53;1.38;;;;;;;;;;5059637;28;20127;-80
2023/06/01 01:46:08;;;;;;;2.10;1.42;;;;;;;;;;5040779;28;20043;-80
2023/06/01 01:48:40;;;;;;;2.03;1.40;;;;;;;;;;5034279;28;20389;-78
2023/06/01 01:51:14;;;;;;;2.22;1.40;;;;;;;;;;5049140;28;20036;-80
2023/06/01 01:53:42;;;;;;;1.98;1.20;;;;;;;;;;5056205;28;20059;-80
2023/06/01 01:56:08;;;;;;;3.65;1.30;;;;;;;;;;5062585;28;20074;-78
2023/06/01 01:58:35;;;;;;;3.38;1.67;;;;;;;;;;5009601;28;20073;-80
2023/06/01 02:01:02;;;;;;;1.58;1.10;;;;;;;;;;5058179;28;20052;-78
2023/06/01 02:03:28;;;;;;;2.30;1.10;;;;;;;;;;5065639;28;20032;-79
2023/06/01 02:05:53;;;;;;;3.35;1.70;;;;;;;;;;5057993;28;20037;-79
2023/06/01 02:08:19;;;;;;;1.73;1.40;;;;;;;;;;5043372;28;20109;-80
2023/06/01 02:10:44;;;;;;;3.47;1.80;;;;;;;;;;5058790;28;20044;-79
2023/06/01 02:13:10;;;;;;;3.17;1.48;;;;;;;;;;5065773;28;20068;-79
2023/06/01 02:15:35;;;;;;;1.92;1.38;;;;;;;;;;5061151;28;20078;-79
2023/06/01 02:18:02;;;;;;;3.08;1.52;;;;;;;;;;5058380;28;20032;-79
2023/06/01 02:20:27;;;;;;;1.73;1.13;;;;;;;;;;5064563;28;20041;-80
2023/06/01 02:22:53;;;;;;;2.78;1.45;;;;;;;;;;5057495;28;20097;-78
2023/06/01 02:25:19;;;;;;;1.70;1.13;;;;;;;;;;5056371;28;20191;-77
2023/06/01 02:27:44;;;;;;;1.08;0.95;;;;;;;;;;5065997;28;20043;-80
2023/06/01 02:30:11;;;;;;;1.55;1.38;;;;;;;;;;5040831;28;20592;-76
2023/06/01 02:32:37;;;;;;;3.33;1.50;;;;;;;;;;5066700;28;20055;-77
2023/06/01 02:35:03;;;;;;;1.52;1.42;;;;;;;;;;5067838;28;20040;-79
2023/06/01 02:37:28;;;;;;;4.28;1.67;;;;;;;;;;5065577;28;20048;-77
2023/06/01 02:39:54;;;;;;;5.40;1.08;;;;;;;;;;5045860;28;20040;-79
2023/06/01 02:42:19;;;;;;;3.95;1.50;;;;;;;;;;5067369;28;20523;-77
2023/06/01 02:44:44;;;;;;;1.67;1.42;;;;;;;;;;5056639;28;20040;-77
2023/06/01 02:47:10;;;;;;;3.22;1.55;;;;;;;;;;5070023;28;20545;-81
2023/06/01 02:49:35;;;;;;;3.47;1.50;;;;;;;;;;5063689;28;20047;-79
2023/06/01 02:52:01;;;;;;;3.15;1.25;;;;;;;;;;5060326;28;20118;-80
2023/06/01 02:54:26;;;;;;;1.35;1.10;;;;;;;;;;5043592;28;20095;-78
2023/06/01 02:56:51;;;;;;;4.20;1.00;;;;;;;;;;5048807;28;20035;-80
2023/06/01 02:59:17;;;;;;;2.95;1.30;;;;;;;;;;5054489;28;20195;-80
2023/06/01 03:01:42;;;;;;;3.25;1.50;;;;;;;;;;5066299;28;20066;-78
2023/06/01 03:04:08;;;;;;;3.80;1.30;;;;;;;;;;5066151;28;20036;-78
2023/06/01 03:06:37;;;;;;;3.08;1.10;;;;;;;;;;5049691;28;20369;-79
2023/06/01 03:09:03;;;;;;;0.98;0.88;;;;;;;;;;5019561;28;20041;-80
2023/06/01 03:11:29;;;;;;;2.70;1.10;;;;;;;;;;5054581;28;20066;-79
2023/06/01 03:13:56;;;;;;;2.22;1.20;;;;;;;;;;5066907;28;20067;-78
2023/06/01 03:16:22;;;;;;;1.70;1.42;;;;;;;;;;5068649;28;20044;-77
2023/06/01 03:18:47;;;;;;;1.42;1.20;;;;;;;;;;5050376;28;20055;-80
2023/06/01 03:21:13;;;;;;;1.67;1.33;;;;;;;;;;5013358;28;20543;-80
2023/06/01 03:23:43;;;;;;;4.18;1.70;;;;;;;;;;5048624;28;20102;-78
2023/06/01 03:26:12;;;;;;;1.90;1.20;;;;;;;;;;5056212;28;20176;-78
2023/06/01 03:28:38;;;;;;;1.92;1.33;;;;;;;;;;5065753;28;20539;-77
2023/06/01 03:31:04;;;;;;;5.05;2.70;;;;;;;;;;5070299;28;20144;-79
2023/06/01 03:33:30;;;;;;;9.02;3.72;;;;;;;;;;5063222;28;20086;-77
2023/06/01 03:35:56;;;;;;;5.63;2.78;;;;;;;;;;5056825;28;20052;-80
2023/06/01 03:38:21;;;;;;;4.70;2.47;;;;;;;;;;5055288;28;20070;-79
2023/06/01 03:40:47;;;;;;;4.85;2.35;;;;;;;;;;5063256;28;20032;-78
2023/06/01 03:43:12;;;;;;;6.10;2.67;;;;;;;;;;5065107;28;20066;-78
2023/06/01 03:45:37;;;;;;;2.90;2.17;;;;;;;;;;5062697;28;20063;-79
2023/06/01 03:48:03;;;;;;;4.10;2.15;;;;;;;;;;5060870;28;20550;-78
2023/06/01 03:50:29;;;;;;;5.13;2.22;;;;;;;;;;5060344;28;20071;-77
2023/06/01 03:52:55;;;;;;;4.82;2.00;;;;;;;;;;5047471;28;20060;-78
2023/06/01 03:55:20;;;;;;;5.95;2.75;;;;;;;;;;5039222;28;20040;-78
2023/06/01 03:57:46;;;;;;;2.90;2.08;;;;;;;;;;5070811;28;20123;-77
2023/06/01 04:00:17;;;;;;;6.00;3.28;;;;;;;;;;5073442;28;20051;-79
2023/06/01 04:02:55;;;;;;;4.15;2.83;;;;;;;;;;5044478;28;20630;-81
2023/06/01 04:05:21;;;;;;;6.93;2.90;;;;;;;;;;5057348;28;20075;-78
2023/06/01 04:07:48;;;;;;;4.22;2.58;;;;;;;;;;5066019;28;20520;-80
2023/06/01 04:10:16;;;;;;;4.55;2.50;;;;;;;;;;5075111;28;20051;-81
2023/06/01 04:12:42;;;;;;;4.90;2.55;;;;;;;;;;5072605;28;20044;-79
2023/06/01 04:15:09;;;;;;;4.35;2.42;;;;;;;;;;5061641;28;20039;-79
2023/06/01 04:17:38;;;;;;;4.00;2.25;;;;;;;;;;5068767;28;20036;-78
2023/06/01 04:20:09;;;;;;;6.25;2.65;;;;;;;;;;5061774;28;20028;-78
2023/06/01 04:22:35;;;;;;;4.68;2.60;;;;;;;;;;5050558;28;20081;-76
2023/06/01 04:25:00;;;;;;;5.90;2.60;;;;;;;;;;5051327;28;20119;-81
2023/06/01 04:27:26;;;;;;;7.38;2.72;;;;;;;;;;5065888;28;20144;-80
2023/06/01 04:29:53;;;;;;;3.33;2.25;;;;;;;;;;5055501;28;20091;-78
2023/06/01 04:32:21;;;;;;;7.65;2.72;;;;;;;;;;5037781;28;20159;-80
2023/06/01 04:34:49;;;;;;;5.22;4.07;;;;;;;;;;5058590;28;20475;-78
2023/06/01 04:37:15;;;;;;;6.35;3.92;;;;;;;;;;5069448;28;20054;-77
2023/06/01 04:39:42;;;;;;;6.65;3.65;;;;;;;;;;5070121;28;20035;-80
2023/06/01 04:42:08;;;;;;;4.95;3.25;;;;;;;;;;5056983;28;20153;-81
2023/06/01 04:44:34;;;;;;;7.05;4.22;;;;;;;;;;5042742;28;20055;-80
2023/06/01 04:47:03;;;;;;;7.15;4.35;;;;;;;;;;5051124;28;20039;-78
2023/06/01 04:49:30;;;;;;;7.75;3.95;;;;;;;;;;5073767;28;20761;-80
2023/06/01 04:51:55;;;;;;;1.88;1.30;;;;;;;;;;5058377;28;20538;-80
2023/06/01 04:54:20;;;;;;;3.17;2.20;;;;;;;;;;5068539;28;20033;-80
2023/06/01 04:56:46;;;;;;;4.47;2.38;;;;;;;;;;5056747;28;20068;-81
2023/06/01 04:59:11;;;;;;;2.42;2.22;;;;;;;;;;5069804;28;20124;-80
2023/06/01 05:01:38;;;;;;;4.82;2.08;;;;;;;;;;5056789;28;20051;-80
2023/06/01 05:04:04;;;;;;;4.47;2.40;;;;;;;;;;5065456;28;20044;-80
2023/06/01 05:06:29;;;;;;;5.50;2.22;;;;;;;;;;5067369;28;20712;-81
2023/06/01 05:08:55;;;;;;;4.18;2.60;;;;;;;;;;5057205;28;20129;-79
2023/06/01 05:11:21;;;;;;;4.13;2.15;;;;;;;;;;5070126;28;20036;-80
2023/06/01 05:13:46;;;;;;;3.42;2.08;;;;;;;;;;5058139;28;20054;-82
2023/06/01 05:16:12;;;;;;;3.47;1.75;;;;;;;;;;5070876;28;20039;-81
2023/06/01 05:18:38;;;;;;;4.55;2.95;;;;;;;;;;5067136;28;20036;-80
2023/06/01 05:21:03;;;;;;;7.72;5.25;;;;;;;;;;5070571;28;20376;-81
2023/06/01 05:23:29;;;;;;;6.05;3.30;;;;;;;;;;5056721;28;20035;-82
2023/06/01 05:26:01;;;;;;;6.13;4.00;;;;;;;;;;5071202;28;20106;-80
2023/06/01 05:28:31;;;;;;;6.65;2.72;;;;;;;;;;5054033;28;20042;-82
2023/06/01 05:30:57;;;;;;;9.32;4.80;;;;;;;;;;5063935;28;20050;-82
2023/06/01 05:33:22;;;;;;;12.32;5.15;;;;;;;;;;5063470;28;20043;-80
2023/06/01 05:35:47;;;;;;;9.07;5.80;;;;;;;;;;5070051;28;20293;-80
2023/06/01 05:38:13;;;;;;;4.47;2.83;;;;;;;;;;5009838;28;20085;-81
2023/06/01 05:40:38;;;;;;;4.78;2.72;;;;;;;;;;5051341;28;20036;-81
2023/06/01 05:43:04;;;;;;;10.77;5.90;;;;;;;;;;5057208;28;20041;-79
2023/06/01 05:45:29;;;;;;;7.85;4.85;;;;;;;;;;5055663;28;20595;-80
2023/06/01 05:47:55;;;;;;;3.03;2.08;;;;;;;;;;5025891;28;20159;-81
2023/06/01 05:50:20;;;;;;;2.90;2.35;;;;;;;;;;5034891;28;20183;-79
2023/06/01 05:52:45;;;;;;;8.05;4.65;;;;;;;;;;5065869;28;20036;-80
2023/06/01 05:55:11;;;;;;;6.55;4.82;;;;;;;;;;5054616;28;20040;-81
2023/06/01 05:57:36;;;;;;;7.72;5.15;;;;;;;;;;5061082;28;20093;-82
2023/06/01 06:00:07;;;;;;;4.00;2.60;;;;;;;;;;5054880;28;20029;-81
2023/06/01 06:02:32;;;;;;;5.28;3.17;;;;;;;;;;5057996;28;20064;-80
2023/06/01 06:04:58;;;;;;;6.45;3.53;;;;;;;;;;5054509;28;20070;-80
2023/06/01 06:07:23;;;;;;;6.57;3.95;;;;;;;;;;5061152;28;20036;-81
2023/06/01 06:09:48;;;;;;;4.07;2.88;;;;;;;;;;5049369;28;20040;-81
2023/06/01 06:12:14;;;;;;;4.05;2.75;;;;;;;;;;5066291;28;20070;-81
2023/06/01 06:14:39;;;;;;;4.38;2.75;;;;;;;;;;5069853;28;20085;-80
2023/06/01 06:17:05;;;;;;;6.93;4.70;;;;;;;;;;5067522;28;20039;-80
2023/06/01 06:19:30;;;;;;;4.10;3.33;;;;;;;;;;5053105;28;20043;-81
2023/06/01 06:21:56;;;;;;;5.38;3.75;;;;;;;;;;5049555;28;20175;-81
2023/06/01 06:24:21;;;;;;;3.30;2.75;;;;;;;;;;5036009;28;20051;-80
2023/06/01 06:26:47;;;;;;;7.18;5.25;;;;;;;;;;5057461;28;20044;-81
2023/06/01 06:29:12;;;;;;;5.03;3.60;;;;;;;;;;5055785;28;20123;-81
2023/06/01 06:31:37;;;;;;;9.05;6.10;;;;;;;;;;5045628;28;20040;-81
2023/06/01 06:34:03;;;;;;;7.85;5.28;;;;;;;;;;5032108;28;20466;-80
2023/06/01 06:36:28;;;;;;;7.55;3.85;;;;;;;;;;5042895;28;20063;-81
2023/06/01 06:38:54;;;;;;;2.85;2.50;;;;;;;;;;5002607;28;20049;-81
2023/06/01 06:41:20;;;;;;;5.53;4.57;;;;;;;;;;5055521;28;20696;-81
2023/06/01 06:43:46;;;;;;;6.65;4.28;;;;;;;;;;5059930;28;20082;-81
2023/06/01 06:46:11;;;;;;;3.00;2.58;;;;;;;;;;5064083;28;20075;-80
2023/06/01 06:48:37;;;;;;;6.88;4.65;;;;;;;;;;5053779;28;20068;-81
2023/06/01 06:51:02;;;;;;;6.25;4.68;;;;;;;;;;5061755;28;20040;-81
2023/06/01 06:53:28;;;;;;;8.80;6.13;;;;;;;;;;5054081;28;20036;-81
2023/06/01 06:55:53;;;;;;;6.53;4.53;;;;;;;;;;5063475;28;20105;-80
2023/06/01 06:58:18;;;;;;;4.55;3.40;;;;;;;;;;5033102;28;20799;-81
2023/06/01 07:00:44;;;;;;;7.70;5.82;;;;;;;;;;5065739;28;20112;-81
2023/06/01 07:03:10;;;;;;;7.95;5.45;;;;;;;;;;5053816;28;20037;-82
2023/06/01 07:05:35;;;;;;;3.35;2.90;;;;;;;;;;5061107;28;20044;-81
2023/06/01 07:08:01;;;;;;;3.60;3.25;;;;;;;;;;5039617;28;20135;-81
2023/06/01 07:10:26;;;;;;;5.63;3.90;;;;;;;;;;5068428;28;20044;-81
2023/06/01 07:12:52;;;;;;;8.35;5.57;;;;;;;;;;5067272;28;20036;-82
2023/06/01 07:15:17;;;;;;;5.80;3.80;;;;;;;;;;5058315;28;20424;-81
2023/06/01 07:17:43;;;;;;;3.85;2.67;;;;;;;;;;5069903;28;20036;-80
2023/06/01 07:20:11;;;;;;;12.80;7.55;;;;;;;;;;5046034;28;20043;-80
2023/06/01 07:22:36;;;;;;;9.57;5.97;;;;;;;;;;5069788;28;20194;-80
2023/06/01 07:25:02;;;;;;;8.15;5.30;;;;;;;;;;5068829;28;20584;-82
2023/06/01 07:27:28;;;;;;;11.80;7.95;;;;;;;;;;5060711;28;20075;-82
2023/06/01 07:29:55;;;;;;;8.63;6.18;;;;;;;;;;5058806;28;20040;-82
2023/06/01 07:32:25;;;;;;;7.90;5.80;;;;;;;;;;5071497;28;20050;-80
2023/06/01 07:34:51;;;;;;;13.13;7.78;;;;;;;;;;5057358;28;20044;-82
2023/06/01 07:37:21;;;;;;;11.57;7.03;;;;;;;;;;5066743;28;20044;-81
2023/06/01 07:39:50;;;;;;;10.00;6.43;;;;;;;;;;5070466;28;20064;-82
2023/06/01 07:42:15;;;;;;;5.63;4.00;;;;;;;;;;5062056;28;20062;-82
2023/06/01 07:44:41;;;;;;;9.23;6.57;;;;;;;;;;5056039;28;20133;-81
2023/06/01 07:47:07;;;;;;;6.93;5.32;;;;;;;;;;5038919;28;20516;-81
2023/06/01 07:49:35;;;;;;;7.72;5.38;;;;;;;;;;5054560;28;20117;-80
2023/06/01 07:52:01;;;;;;;9.15;6.05;;;;;;;;;;5071561;28;20060;-82
2023/06/01 07:54:27;;;;;;;5.70;4.03;;;;;;;;;;5063945;28;20129;-80
2023/06/01 07:56:53;;;;;;;7.03;5.18;;;;;;;;;;5053369;28;20028;-82
2023/06/01 07:59:21;;;;;;;10.40;7.57;;;;;;;;;;5069300;28;20034;-81
2023/06/01 08:01:48;;;;;;;9.57;6.72;;;;;;;;;;5060508;28;20044;-82
2023/06/01 08:04:13;;;;;;;7.80;5.68;;;;;;;;;;5066549;28;20039;-81
2023/06/01 08:06:41;;;;;;;5.80;3.92;;;;;;;;;;5060444;28;20041;-82
2023/06/01 08:09:07;;;;;;;7.03;5.15;;;;;;;;;;5046241;28;20052;-80
2023/06/01 08:11:32;;;;;;;6.57;4.85;;;;;;;;;;5024178;28;20079;-82
2023/06/01 08:13:59;;;;;;;10.55;6.95;;;;;;;;;;5051388;28;20052;-82
2023/06/01 08:16:26;;;;;;;7.18;4.90;;;;;;;;;;5030117;28;20052;-81
2023/06/01 08:18:52;;;;;;;8.00;5.47;;;;;;;;;;5069789;28;20044;-81
2023/06/01 08:21:17;;;;;;;8.55;5.35;;;;;;;;;;5069261;28;20106;-81
2023/06/01 08:23:43;;;;;;;7.78;5.88;;;;;;;;;;5045340;28;20112;-80
2023/06/01 08:26:08;;;;;;;7.32;5.47;;;;;;;;;;5052136;28;20151;-83
2023/06/01 08:28:34;;;;;;;9.85;6.18;;;;;;;;;;5059400;28;20040;-80
2023/06/01 08:30:59;;;;;;;8.63;5.80;;;;;;;;;;5073381;28;20043;-81
2023/06/01 08:33:24;;;;;;;7.85;5.75;;;;;;;;;;5047610;28;20043;-82
2023/06/01 08:35:50;;;;;;;5.40;4.38;;;;;;;;;;5069772;28;20047;-83
2023/06/01 08:38:15;;;;;;;7.70;6.40;;;;;;;;;;5059188;28;20083;-82
2023/06/01 08:40:41;;;;;;;4.40;3.92;;;;;;;;;;5069206;28;20504;-82
2023/06/01 08:43:16;;;;;;;6.93;5.47;;;;;;;;;;5059706;28;20101;-83
2023/06/01 08:45:43;;;;;;;5.88;4.00;;;;;;;;;;5061282;28;20081;-81
2023/06/01 08:48:12;;;;;;;6.38;5.40;;;;;;;;;;5069756;28;20127;-81
2023/06/01 08:50:38;;;;;;;4.72;4.25;;;;;;;;;;5042782;28;20101;-81
2023/06/01 08:53:04;;;;;;;5.07;4.25;;;;;;;;;;5066290;28;20040;-83
2023/06/01 08:55:30;;;;;;;6.10;4.90;;;;;;;;;;5053329;28;20048;-79
2023/06/01 08:57:56;;;;;;;13.00;9.20;;;;;;;;;;5069255;28;20036;-82
2023/06/01 09:00:23;;;;;;;11.95;10.27;;;;;;;;;;5063527;28;20439;-82
2023/06/01 09:02:49;;;;;;;6.45;5.35;;;;;;;;;;5041736;28;20071;-81
2023/06/01 09:05:14;;;;;;;12.10;7.80;;;;;;;;;;5041685;28;20516;-81
2023/06/01 09:07:40;;;;;;;9.23;7.57;;;;;;;;;;5069882;28;20153;-83
2023/06/01 09:10:06;;;;;;;10.55;8.43;;;;;;;;;;5042367;28;20539;-81
2023/06/01 09:12:33;;;;;;;10.80;8.45;;;;;;;;;;5072909;28;20051;-82
2023/06/01 09:15:17;;;;;;;15.32;10.40;;;;;;;;;;5071276;28;20055;-82
2023/06/01 09:17:47;;;;;;;11.65;9.50;;;;;;;;;;5047177;28;20135;-81
2023/06/01 09:20:14;;;;;;;7.82;5.80;;;;;;;;;;5070745;28;20043;-81
2023/06/01 09:22:45;;;;;;;14.82;11.13;;;;;;;;;;5059113;28;20178;-80
2023/06/01 09:25:12;;;;;;;9.00;6.78;;;;;;;;;;5066307;28;20032;-81
2023/06/01 09:27:49;;;;;;;11.18;8.45;;;;;;;;;;5054986;28;20614;-81
2023/06/01 09:30:15;;;;;;;11.52;8.95;;;;;;;;;;5058077;28;20584;-81
2023/06/01 09:32:42;;;;;;;9.32;7.00;;;;;;;;;;5053800;28;20121;-81
2023/06/01 09:35:08;;;;;;;9.88;8.75;;;;;;;;;;5045798;28;20095;-80
2023/06/01 09:37:38;;;;;;;10.38;9.27;;;;;;;;;;5053067;28;20467;-81
2023/06/01 09:40:17;;;;;;;9.30;8.23;;;;;;;;;;5070207;28;20095;-80
2023/06/01 09:42:43;;;;;;;11.23;9.00;;;;;;;;;;5026638;28;20041;-82
2023/06/01 09:45:17;;;;;;;12.65;10.05;;;;;;;;;;5065658;28;20088;-81
2023/06/01 09:47:43;;;;;;;14.43;11.68;;;;;;;;;;5029975;28;20051;-82
2023/06/01 09:50:09;;;;;;;12.13;9.93;;;;;;;;;;5054322;28;20040;-81
2023/06/01 09:52:35;;;;;;;11.02;8.98;;;;;;;;;;5052961;28;20073;-80
2023/06/01 09:55:08;;;;;;;14.60;10.82;;;;;;;;;;5056473;28;20154;-82
2023/06/01 09:57:33;;;;;;;14.20;10.30;;;;;;;;;;5044693;28;20043;-81
2023/06/01 10:00:02;;;;;;;10.02;8.23;;;;;;;;;;5058104;28;20035;-81
2023/06/01 10:02:31;;;;;;;10.40;8.60;;;;;;;;;;5071811;28;20067;-81
2023/06/01 10:04:58;;;;;;;11.23;9.70;;;;;;;;;;5068643;28;20066;-82
2023/06/01 10:07:26;;;;;;;12.57;10.38;;;;;;;;;;5057035;28;20036;-82
2023/06/01 10:09:58;;;;;;;11.27;9.35;;;;;;;;;;5068320;28;20028;-81
2023/06/01 10:12:24;;;;;;;10.75;9.27;;;;;;;;;;5063257;28;20456;-82
2023/06/01 10:14:50;;;;;;;15.95;12.30;;;;;;;;;;5068341;28;20089;-81
2023/06/01 10:17:17;;;;;;;14.07;11.02;;;;;;;;;;5070059;28;20513;-82
2023/06/01 10:19:42;;;;;;;14.35;10.00;;;;;;;;;;5032182;28;20577;-82
2023/06/01 10:22:10;;;;;;;14.82;10.68;;;;;;;;;;5070729;28;20039;-81
2023/06/01 10:24:40;;;;;;;16.10;11.77;;;;;;;;;;5065021;28;20474;-81
2023/06/01 10:27:29;;;;;;;11.90;8.68;;;;;;;;;;5055114;28;20063;-81
2023/06/01 10:29:55;;;;;;;8.93;8.02;;;;;;;;;;5067422;28;20126;-82
2023/06/01 10:32:47;;;;;;;11.00;8.32;;;;;;;;;;5057889;28;20052;-82
2023/06/01 10:35:28;;;;;;;12.20;9.63;;;;;;;;;;5059733;28;20028;-82
2023/06/01 10:38:16;;;;;;;9.73;8.40;;;;;;;;;;5065684;28;20060;-82
2023/06/01 10:40:43;;;;;;;10.80;8.90;;;;;;;;;;5057176;28;20039;-82
2023/06/01 10:43:36;;;;;;;10.65;8.82;;;;;;;;;;5067536;28;20028;-82
2023/06/01 10:46:02;;;;;;;11.85;9.23;;;;;;;;;;5061333;28;20044;-83
2023/06/01 10:48:52;;;;;;;10.38;8.85;;;;;;;;;;5068025;28;20966;-82
2023/06/01 10:51:19;;;;;;;11.15;9.07;;;;;;;;;;5059077;28;20045;-82
2023/06/01 10:53:45;;;;;;;9.15;7.78;;;;;;;;;;5067402;28;20088;-83
2023/06/01 10:56:26;;;;;;;10.98;8.50;;;;;;;;;;5062982;28;20032;-83
2023/06/01 10:59:07;;;;;;;12.65;9.82;;;;;;;;;;5063576;28;20040;-82
2023/06/01 11:01:36;;;;;;;;;;;;;;;;;;5052178;28;20046;-81
2023/06/01 11:04:02;;;;;;;8.50;6.90;;;;;;;;;;5050072;28;19954;-82
2023/06/01 11:06:37;;;;;;;8.93;7.35;;;;;;;;;;5064701;28;20071;-82
2023/06/01 11:09:08;;;;;;;9.90;7.75;;;;;;;;;;5066481;28;20028;-83
2023/06/01 11:11:51;;;;;;;10.82;8.75;;;;;;;;;;5058586;28;20060;-81
2023/06/01 11:14:25;;;;;;;10.18;7.78;;;;;;;;;;5016970;28;20113;-82
2023/06/01 11:16:52;;;;;;;13.35;7.47;;;;;;;;;;5044380;28;20082;-81
2023/06/01 11:19:24;;;;;;;8.50;6.45;;;;;;;;;;5047336;28;20040;-81
2023/06/01 11:22:02;;;;;;;11.32;8.18;;;;;;;;;;5058153;28;20040;-82
2023/06/01 11:24:36;;;;;;;7.70;6.22;;;;;;;;;;5063189;28;20062;-82
2023/06/01 11:27:09;;;;;;;9.38;6.90;;;;;;;;;;5043939;28;20028;-83
2023/06/01 11:29:36;;;;;;;7.75;6.47;;;;;;;;;;5050786;28;20068;-82
2023/06/01 11:32:05;;;;;;;8.50;6.13;;;;;;;;;;5055461;28;20048;-82
2023/06/01 11:34:38;;;;;;;12.95;7.20;;;;;;;;;;5027400;28;20454;-82
2023/06/01 11:37:05;;;;;;;8.98;6.68;;;;;;;;;;5061316;28;20039;-83
2023/06/01 11:39:31;;;;;;;6.65;5.95;;;;;;;;;;5030914;28;20033;-83
2023/06/01 11:42:14;;;;;;;8.20;5.63;;;;;;;;;;5065420;28;20807;-82
2023/06/01 11:44:41;;;;;;;8.35;6.20;;;;;;;;;;5057650;28;20051;-82
2023/06/01 11:47:08;;;;;;;7.38;6.07;;;;;;;;;;5066707;28;20040;-83
2023/06/01 11:49:41;;;;;;;6.75;5.93;;;;;;;;;;5046394;28;20462;-82
2023/06/01 11:52:09;;;;;;;8.52;6.30;;;;;;;;;;5042072;28;20108;-82
2023/06/01 11:54:35;;;;;;;8.88;6.20;;;;;;;;;;5063665;28;20060;-81
2023/06/01 11:57:03;;;;;;;10.07;6.53;;;;;;;;;;5057680;28;20404;-82
2023/06/01 11:59:43;;;;;;;7.00;5.57;;;;;;;;;;5063364;28;20036;-82
2023/06/01 12:02:24;;;;;;;7.38;6.10;;;;;;;;;;5055052;28;20123;-81
2023/06/01 12:05:08;;;;;;;6.55;5.43;;;;;;;;;;5066264;28;20505;-82
2023/06/01 12:07:47;;;;;;;7.55;5.15;;;;;;;;;;5056514;28;20036;-83
2023/06/01 12:10:15;;;;;;;6.40;5.65;;;;;;;;;;5063023;28;20067;-82
2023/06/01 12:12:42;;;;;;;7.00;5.00;;;;;;;;;;5061394;28;20055;-82
2023/06/01 12:15:09;;;;;;;8.40;5.28;;;;;;;;;;5056513;28;20037;-82
2023/06/01 12:17:49;;;;;;;7.15;5.43;;;;;;;;;;5066535;28;20088;-82
2023/06/01 12:20:29;;;;;;;7.38;5.32;;;;;;;;;;5022850;28;20057;-82
2023/06/01 12:22:55;;;;;;;5.82;4.60;;;;;;;;;;5058261;28;20052;-82
2023/06/01 12:25:24;;;;;;;5.45;4.07;;;;;;;;;;5054141;28;20036;-83
2023/06/01 12:28:10;;;;;;;6.00;3.72;;;;;;;;;;5054094;28;20044;-82
2023/06/01 12:30:36;;;;;;;5.78;4.18;;;;;;;;;;5051218;28;20057;-83
2023/06/01 12:33:04;;;;;;;5.82;4.07;;;;;;;;;;5050565;28;20032;-83
2023/06/01 12:35:30;;;;;;;5.13;4.22;;;;;;;;;;5061215;28;20031;-83
2023/06/01 12:38:06;;;;;;;6.55;4.50;;;;;;;;;;5070507;28;20055;-82
2023/06/01 12:40:32;;;;;;;5.70;3.92;;;;;;;;;;5056718;28;20033;-82
2023/06/01 12:42:57;;;;;;;5.53;3.80;;;;;;;;;;5049621;28;20137;-82
2023/06/01 12:45:23;;;;;;;6.15;3.72;;;;;;;;;;5064851;28;20554;-82
2023/06/01 12:47:48;;;;;;;6.13;4.25;;;;;;;;;;5071668;28;20121;-82
2023/06/01 12:50:14;;;;;;;6.28;4.85;;;;;;;;;;5059714;28;20028;-82
2023/06/01 12:52:42;;;;;;;7.05;3.78;;;;;;;;;;5069663;28;20060;-82
2023/06/01 12:55:08;;;;;;;5.72;4.50;;;;;;;;;;5058251;28;20125;-82
2023/06/01 12:57:35;;;;;;;6.95;4.63;;;;;;;;;;5056869;28;20052;-82
2023/06/01 13:00:02;;;;;;;5.88;4.03;;;;;;;;;;5068922;28;20123;-82
2023/06/01 13:02:27;;;;;;;3.72;3.33;;;;;;;;;;5063205;28;20507;-82
2023/06/01 13:04:53;;;;;;;6.10;4.95;;;;;;;;;;5066052;28;20041;-82
2023/06/01 13:07:22;;;;;;;4.93;3.83;;;;;;;;;;5046092;28;20084;-82
2023/06/01 13:09:47;;;;;;;6.82;3.83;;;;;;;;;;5043958;28;20048;-82
2023/06/01 13:12:13;;;;;;;5.25;3.85;;;;;;;;;;5053234;28;20033;-82
2023/06/01 13:14:38;;;;;;;4.03;3.50;;;;;;;;;;5068724;28;20063;-81
2023/06/01 13:17:04;;;;;;;7.55;4.65;;;;;;;;;;5057684;28;20073;-82
2023/06/01 13:19:29;;;;;;;5.28;4.40;;;;;;;;;;5052961;28;20106;-82
2023/06/01 13:21:56;;;;;;;6.50;4.68;;;;;;;;;;5070783;28;20043;-81
2023/06/01 13:24:22;;;;;;;4.75;3.83;;;;;;;;;;5069112;28;20028;-81
2023/06/01 13:26:47;;;;;;;7.45;4.95;;;;;;;;;;5039834;28;20049;-82
2023/06/01 13:29:13;;;;;;;5.40;3.25;;;;;;;;;;5069820;28;20089;-82
2023/06/01 13:31:38;;;;;;;4.68;3.20;;;;;;;;;;5063052;28;20056;-82
2023/06/01 13:34:04;;;;;;;6.53;4.53;;;;;;;;;;5063181;28;20126;-82
2023/06/01 13:36:30;;;;;;;6.13;3.90;;;;;;;;;;5055415;28;20043;-82
2023/06/01 13:38:56;;;;;;;5.82;4.05;;;;;;;;;;5054072;28;20043;-82
2023/06/01 13:41:21;;;;;;;5.63;4.00;;;;;;;;;;5064220;28;20163;-81
2023/06/01 13:43:47;;;;;;;5.80;4.18;;;;;;;;;;5067926;28;20044;-81
2023/06/01 13:46:12;;;;;;;5.68;3.97;;;;;;;;;;5059301;28;20052;-81
2023/06/01 13:48:38;;;;;;;7.10;4.60;;;;;;;;;;5064979;28;20036;-81
2023/06/01 13:51:05;;;;;;;3.83;3.20;;;;;;;;;;5066926;28;20044;-81
2023/06/01 13:53:30;;;;;;;5.63;3.90;;;;;;;;;;5040420;28;20074;-82
2023/06/01 13:55:56;;;;;;;5.30;3.53;;;;;;;;;;5066889;28;20032;-80
2023/06/01 13:58:22;;;;;;;5.75;4.25;;;;;;;;;;5045457;28;20059;-80
2023/06/01 14:00:47;;;;;;;3.63;3.33;;;;;;;;;;5064119;28;20051;-81
2023/06/01 14:03:12;;;;;;;4.55;3.58;;;;;;;;;;5060314;28;20045;-82
2023/06/01 14:05:38;;;;;;;4.88;3.53;;;;;;;;;;5067308;28;20048;-81
2023/06/01 14:08:04;;;;;;;4.45;3.65;;;;;;;;;;5027789;28;20536;-81
2023/06/01 14:10:31;;;;;;;4.93;3.40;;;;;;;;;;5028768;28;21614;-82
2023/06/01 14:12:56;;;;;;;5.60;3.72;;;;;;;;;;5054145;28;20051;-81
2023/06/01 14:15:22;;;;;;;4.32;3.00;;;;;;;;;;5061255;28;20409;-81
2023/06/01 14:17:50;;;;;;;4.95;3.00;;;;;;;;;;5037548;28;20090;-81
2023/06/01 14:20:15;;;;;;;3.88;3.08;;;;;;;;;;5050058;28;20036;-82
2023/06/01 14:22:42;;;;;;;4.10;3.38;;;;;;;;;;5059029;28;20060;-80
2023/06/01 14:25:07;;;;;;;10.52;4.07;;;;;;;;;;5066664;28;20047;-81
2023/06/01 14:27:33;;;;;;;5.30;3.28;;;;;;;;;;5045350;28;20036;-82
2023/06/01 14:30:00;;;;;;;4.20;3.20;;;;;;;;;;5066565;28;20043;-82
2023/06/01 14:32:26;;;;;;;3.35;3.05;;;;;;;;;;5038900;28;20060;-82
2023/06/01 14:34:51;;;;;;;3.08;2.80;;;;;;;;;;5029666;28;20068;-82
2023/06/01 14:37:16;;;;;;;4.53;3.58;;;;;;;;;;5060392;28;20531;-81
2023/06/01 14:39:42;;;;;;;6.47;4.15;;;;;;;;;;5056021;28;20051;-83
2023/06/01 14:42:08;;;;;;;5.35;3.35;;;;;;;;;;5047012;28;20487;-81
2023/06/01 14:44:33;;;;;;;5.45;3.72;;;;;;;;;;5068017;28;20074;-81